createdAt,value
2018-04-17T05:03:18.975Z,95.63
2018-04-17T05:04:19.117Z,95.63
2018-04-17T05:05:19.282Z,101.25
2018-04-17T05:06:19.420Z,106.88
2018-04-17T05:07:19.596Z,106.88
2018-04-17T05:08:19.726Z,112.50
2018-04-17T05:09:19.943Z,112.50
2018-04-17T05:10:20.047Z,112.50
2018-04-17T05:11:20.205Z,118.13
2018-04-17T05:12:20.401Z,118.13
2018-04-17T05:13:20.588Z,123.75
2018-04-17T05:14:20.710Z,123.75
2018-04-17T05:15:20.882Z,129.38
2018-04-17T05:16:21.018Z,129.38
2018-04-17T05:17:21.188Z,135.00
2018-04-17T05:18:21.329Z,140.63
2018-04-17T05:19:21.495Z,140.63
2018-04-17T05:20:21.688Z,146.25
2018-04-17T05:21:21.867Z,146.25
2018-04-17T05:22:21.999Z,151.88
2018-04-17T05:23:22.171Z,151.88
2018-04-17T05:24:22.293Z,157.50
2018-04-17T05:25:22.468Z,157.50
2018-04-17T05:26:22.671Z,157.50
2018-04-17T05:27:22.816Z,163.13
2018-04-17T05:28:23.029Z,163.13
2018-04-17T05:29:23.166Z,163.13
2018-04-17T05:30:23.303Z,163.13
2018-04-17T05:31:23.452Z,168.75
2018-04-17T05:32:23.623Z,168.75
2018-04-17T05:33:23.746Z,168.75
2018-04-17T05:34:24.027Z,168.75
2018-04-17T05:35:24.145Z,168.75
2018-04-17T05:36:24.347Z,168.75
2018-04-17T05:37:24.394Z,168.75
2018-04-17T05:38:24.630Z,168.75
2018-04-17T05:39:24.773Z,174.38
2018-04-17T05:40:24.923Z,174.38
2018-04-17T05:41:25.092Z,180.00
2018-04-17T05:42:25.201Z,185.63
2018-04-17T05:43:25.387Z,185.63
2018-04-17T05:44:25.700Z,185.63
2018-04-17T05:45:25.767Z,191.25
2018-04-17T05:46:25.939Z,196.88
2018-04-17T05:47:26.069Z,213.75
2018-04-17T05:48:26.185Z,219.38
2018-04-17T05:49:26.413Z,225.00
2018-04-17T05:50:26.574Z,230.63
2018-04-17T05:51:26.770Z,225.00
2018-04-17T05:52:26.902Z,230.63
2018-04-17T05:53:26.995Z,241.88
2018-04-17T05:54:27.332Z,264.38
2018-04-17T05:55:27.378Z,275.63
2018-04-17T05:56:27.525Z,275.63
2018-04-17T05:57:27.769Z,275.63
2018-04-17T05:58:27.795Z,281.25
2018-04-17T05:59:28.022Z,286.88
2018-04-17T06:00:28.194Z,292.50
2018-04-17T06:01:28.386Z,298.13
2018-04-17T06:02:28.480Z,309.38
2018-04-17T06:03:28.681Z,320.63
2018-04-17T06:04:28.850Z,320.63
2018-04-17T06:05:29.029Z,326.25
2018-04-17T06:06:29.167Z,315.00
2018-04-17T06:07:29.310Z,320.63
2018-04-17T06:08:29.464Z,309.38
2018-04-17T06:09:29.655Z,298.13
2018-04-17T06:10:29.827Z,292.50
2018-04-17T06:11:29.927Z,298.13
2018-04-17T06:12:30.093Z,298.13
2018-04-17T06:13:30.290Z,298.13
2018-04-17T06:14:30.519Z,292.50
2018-04-17T06:15:30.749Z,292.50
2018-04-17T06:16:30.857Z,298.13
2018-04-17T06:17:31.062Z,298.13
2018-04-17T06:18:31.203Z,303.75
2018-04-17T06:19:31.324Z,309.38
2018-04-17T06:20:31.499Z,309.38
2018-04-17T06:21:31.640Z,315.00
2018-04-17T06:22:31.812Z,315.00
2018-04-17T06:23:32.011Z,315.00
2018-04-17T06:24:32.137Z,309.38
2018-04-17T06:25:32.315Z,309.38
2018-04-17T06:26:32.468Z,315.00
2018-04-17T06:27:32.691Z,320.63
2018-04-17T06:28:32.841Z,320.63
2018-04-17T06:29:33.021Z,326.25
2018-04-17T06:30:33.207Z,326.25
2018-04-17T06:31:33.354Z,326.25
2018-04-17T06:32:33.567Z,343.13
2018-04-17T06:33:33.712Z,348.75
2018-04-17T06:34:33.831Z,337.50
2018-04-17T06:35:34.042Z,337.50
2018-04-17T06:36:34.204Z,354.38
2018-04-17T06:37:34.358Z,360.00
2018-04-17T06:38:34.460Z,382.50
2018-04-17T06:39:34.630Z,393.75
2018-04-17T06:40:34.828Z,371.25
2018-04-17T06:41:35.034Z,393.75
2018-04-17T06:42:35.177Z,405.00
2018-04-17T06:43:35.237Z,410.63
2018-04-17T06:44:35.454Z,410.63
2018-04-17T06:45:35.643Z,416.25
2018-04-17T06:46:35.829Z,416.25
2018-04-17T06:47:36.003Z,416.25
2018-04-17T06:48:36.167Z,427.50
2018-04-17T06:49:36.409Z,455.63
2018-04-17T06:50:36.454Z,455.63
2018-04-17T06:51:36.668Z,450.00
2018-04-17T06:52:36.860Z,450.00
2018-04-17T06:53:37.003Z,450.00
2018-04-17T06:54:37.177Z,450.00
2018-04-17T06:55:37.242Z,450.00
2018-04-17T06:56:37.399Z,455.63
2018-04-17T06:57:37.602Z,461.25
2018-04-17T06:58:37.717Z,478.13
2018-04-17T06:59:37.892Z,489.38
2018-04-17T07:00:38.064Z,495.00
2018-04-17T07:01:38.242Z,500.63
2018-04-17T07:02:38.405Z,500.63
2018-04-17T07:03:38.578Z,500.63
2018-04-17T07:04:38.721Z,489.38
2018-04-17T07:05:38.883Z,478.13
2018-04-17T07:06:39.023Z,461.25
2018-04-17T07:07:39.177Z,433.13
2018-04-17T07:08:39.375Z,433.13
2018-04-17T07:09:39.490Z,438.75
2018-04-17T07:10:39.717Z,444.38
2018-04-17T07:11:39.887Z,444.38
2018-04-17T07:12:40.034Z,495.00
2018-04-17T07:13:40.146Z,489.38
2018-04-17T07:14:40.371Z,511.88
2018-04-17T07:15:40.481Z,517.50
2018-04-17T07:16:40.686Z,523.13
2018-04-17T07:17:40.804Z,534.38
2018-04-17T07:18:40.998Z,540.00
2018-04-17T07:19:41.140Z,540.00
2018-04-17T07:20:41.363Z,540.00
2018-04-17T07:21:41.506Z,545.63
2018-04-17T07:22:41.688Z,551.25
2018-04-17T07:23:41.942Z,551.25
2018-04-17T07:24:41.995Z,551.25
2018-04-17T07:25:42.240Z,551.25
2018-04-17T07:26:42.282Z,551.25
2018-04-17T07:27:42.458Z,551.25
2018-04-17T07:28:42.678Z,556.88
2018-04-17T07:29:42.781Z,556.88
2018-04-17T07:30:42.977Z,562.50
2018-04-17T07:31:43.114Z,568.13
2018-04-17T07:32:43.332Z,573.75
2018-04-17T07:33:43.545Z,573.75
2018-04-17T07:34:43.661Z,579.38
2018-04-17T07:35:43.806Z,585.00
2018-04-17T07:36:43.997Z,590.63
2018-04-17T07:37:44.149Z,596.25
2018-04-17T07:38:44.300Z,601.88
2018-04-17T07:39:44.506Z,607.50
2018-04-17T07:40:44.610Z,607.50
2018-04-17T07:41:44.818Z,613.13
2018-04-17T07:42:44.923Z,618.75
2018-04-17T07:43:45.146Z,618.75
2018-04-17T07:44:45.219Z,624.38
2018-04-17T07:45:45.469Z,624.38
2018-04-17T07:46:45.557Z,630.00
2018-04-17T07:47:45.739Z,635.63
2018-04-17T07:48:46.003Z,635.63
2018-04-17T07:49:46.057Z,641.25
2018-04-17T07:50:46.302Z,652.50
2018-04-17T07:51:46.405Z,669.38
2018-04-17T07:52:46.596Z,680.63
2018-04-17T07:53:46.815Z,691.88
2018-04-17T07:54:47.004Z,697.50
2018-04-17T07:55:47.218Z,708.75
2018-04-17T07:56:47.270Z,720.00
2018-04-17T07:57:47.501Z,731.25
2018-04-17T07:58:47.604Z,753.75
2018-04-17T07:59:47.775Z,765.00
2018-04-17T08:00:47.995Z,770.63
2018-04-17T08:01:48.253Z,781.88
2018-04-17T08:02:48.336Z,798.75
2018-04-17T08:03:48.489Z,821.25
2018-04-17T08:04:48.670Z,838.13
2018-04-17T08:05:48.814Z,849.38
2018-04-17T08:06:48.952Z,855.00
2018-04-17T08:07:49.145Z,877.50
2018-04-17T08:08:49.306Z,900.00
2018-04-17T08:09:49.515Z,905.63
2018-04-17T08:10:49.673Z,911.25
2018-04-17T08:11:49.868Z,916.88
2018-04-17T08:12:49.979Z,922.50
2018-04-17T08:13:50.179Z,922.50
2018-04-17T08:14:50.299Z,945.00
2018-04-17T08:15:50.514Z,961.88
2018-04-17T08:16:50.670Z,978.75
2018-04-17T08:17:50.813Z,1001.25
2018-04-17T08:18:51.005Z,1018.13
2018-04-17T08:19:51.181Z,1035.00
2018-04-17T08:20:51.320Z,1046.25
2018-04-17T08:21:51.560Z,1074.38
2018-04-17T08:22:51.708Z,1091.25
2018-04-17T08:23:51.788Z,1119.38
2018-04-17T08:24:52.010Z,1147.50
2018-04-17T08:25:52.201Z,1158.75
2018-04-17T08:26:52.295Z,1181.25
2018-04-17T08:27:52.510Z,1192.50
2018-04-17T08:28:52.711Z,1203.75
2018-04-17T08:29:52.813Z,1220.63
2018-04-17T08:30:52.974Z,1243.13
2018-04-17T08:31:53.236Z,1254.38
2018-04-17T08:32:53.352Z,1276.88
2018-04-17T08:33:53.556Z,1305.00
2018-04-17T08:34:53.679Z,1310.63
2018-04-17T08:35:53.841Z,1350.00
2018-04-17T08:36:54.084Z,1355.63
2018-04-17T08:37:54.170Z,1372.50
2018-04-17T08:38:54.406Z,1411.88
2018-04-17T08:39:54.593Z,1411.88
2018-04-17T08:40:54.674Z,1445.63
2018-04-17T08:41:54.861Z,1445.63
2018-04-17T08:42:55.038Z,1473.75
2018-04-17T08:43:55.189Z,1496.25
2018-04-17T08:44:55.344Z,1513.13
2018-04-17T08:45:55.503Z,1524.38
2018-04-17T08:46:55.689Z,1552.50
2018-04-17T08:47:55.867Z,1575.00
2018-04-17T08:48:56.065Z,1580.63
2018-04-17T08:49:56.242Z,1603.13
2018-04-17T08:50:56.386Z,1636.88
2018-04-17T08:51:56.493Z,1659.38
2018-04-17T08:52:56.662Z,1665.00
2018-04-17T08:53:56.887Z,1687.50
2018-04-17T08:54:57.021Z,1698.75
2018-04-17T08:55:57.159Z,1704.38
2018-04-17T08:56:57.339Z,1721.25
2018-04-17T08:57:57.610Z,1749.38
2018-04-17T08:58:57.718Z,1760.63
2018-04-17T08:59:57.897Z,1755.00
2018-04-17T09:00:58.051Z,1777.50
2018-04-17T09:01:58.235Z,1850.63
2018-04-17T09:02:58.372Z,1850.63
2018-04-17T09:03:58.597Z,1856.25
2018-04-17T09:04:58.719Z,1884.38
2018-04-17T09:05:58.913Z,1912.50
2018-04-17T09:06:59.068Z,1918.13
2018-04-17T09:07:59.231Z,1946.25
2018-04-17T09:08:59.379Z,1968.75
2018-04-17T09:09:59.533Z,1991.25
2018-04-17T09:10:59.773Z,2008.13
2018-04-17T09:12:00.000Z,2036.25
2018-04-17T09:13:00.102Z,2064.38
2018-04-17T09:14:00.309Z,2075.63
2018-04-17T09:15:00.416Z,1968.75
2018-04-17T09:16:00.627Z,1935.00
2018-04-17T09:17:00.845Z,2008.13
2018-04-17T09:18:00.918Z,2120.63
2018-04-17T09:19:01.068Z,2143.13
2018-04-17T09:20:01.262Z,2216.25
2018-04-17T09:21:01.527Z,2238.75
2018-04-17T09:22:01.646Z,2238.75
2018-04-17T09:23:01.822Z,2295.00
2018-04-17T09:24:01.946Z,2283.75
2018-04-17T09:25:02.140Z,2295.00
2018-04-17T09:26:02.374Z,2340.00
2018-04-17T09:27:02.471Z,2328.75
2018-04-17T09:28:02.702Z,2385.00
2018-04-17T09:29:02.859Z,2334.38
2018-04-17T09:30:02.973Z,2435.63
2018-04-17T09:31:03.205Z,2480.63
2018-04-17T09:32:03.365Z,2491.88
2018-04-17T09:33:04.245Z,2531.25
2018-04-17T09:34:03.746Z,2531.25
2018-04-17T09:35:03.857Z,2542.50
2018-04-17T09:36:04.080Z,2570.63
2018-04-17T09:37:04.156Z,2570.63
2018-04-17T09:38:04.339Z,2587.50
2018-04-17T09:39:04.537Z,2598.75
2018-04-17T09:40:04.672Z,2621.25
2018-04-17T09:41:04.865Z,2638.13
2018-04-17T09:42:05.045Z,2638.13
2018-04-17T09:43:05.254Z,2666.25
2018-04-17T09:44:05.414Z,2688.75
2018-04-17T09:45:05.619Z,2683.13
2018-04-17T09:46:05.767Z,2705.63
2018-04-17T09:47:05.983Z,2722.50
2018-04-17T09:48:06.187Z,2761.88
2018-04-17T09:49:06.333Z,2784.38
2018-04-17T09:50:06.565Z,2840.63
2018-04-17T09:51:06.709Z,2857.50
2018-04-17T09:52:06.862Z,2880.00
2018-04-17T09:53:07.096Z,2863.13
2018-04-17T09:54:07.260Z,2868.75
2018-04-17T09:55:07.439Z,2874.38
2018-04-17T09:56:07.570Z,2885.63
2018-04-17T09:57:07.763Z,2902.50
2018-04-17T09:58:07.962Z,2925.00
2018-04-17T09:59:08.163Z,2941.88
2018-04-17T10:00:08.313Z,2992.50
2018-04-17T10:01:08.447Z,3043.13
2018-04-17T10:02:08.702Z,3076.88
2018-04-17T10:03:08.888Z,3138.75
2018-04-17T10:04:09.060Z,3138.75
2018-04-17T10:05:09.211Z,3189.38
2018-04-17T10:06:09.363Z,3240.00
2018-04-17T10:07:09.484Z,3256.88
2018-04-17T10:08:09.744Z,3273.75
2018-04-17T10:09:09.956Z,3318.75
2018-04-17T10:10:10.109Z,3341.25
2018-04-17T10:11:10.237Z,3335.63
2018-04-17T10:12:10.433Z,3330.00
2018-04-17T10:13:10.562Z,3352.50
2018-04-17T10:14:10.741Z,3296.25
2018-04-17T10:15:10.932Z,3335.63
2018-04-17T10:16:11.101Z,3301.88
2018-04-17T10:17:11.380Z,3307.50
2018-04-17T10:18:11.567Z,3324.38
2018-04-17T10:19:11.674Z,3397.50
2018-04-17T10:20:11.850Z,3403.13
2018-04-17T10:21:12.060Z,3397.50
2018-04-17T10:22:12.211Z,3352.50
2018-04-17T10:23:12.353Z,3313.13
2018-04-17T10:24:12.530Z,3431.25
2018-04-17T10:25:12.732Z,3465.00
2018-04-17T10:26:12.903Z,3403.13
2018-04-17T10:27:13.035Z,3245.63
2018-04-17T10:28:13.232Z,2503.13
2018-04-17T10:29:13.437Z,3453.75
2018-04-17T10:30:13.643Z,3532.50
2018-04-17T10:31:13.793Z,3442.50
2018-04-17T10:32:13.978Z,3470.63
2018-04-17T10:33:14.111Z,3493.13
2018-04-17T10:34:14.321Z,3538.13
2018-04-17T10:35:14.585Z,3583.13
2018-04-17T10:36:14.734Z,3622.50
2018-04-17T10:37:14.821Z,3690.00
2018-04-17T10:38:15.010Z,3262.50
2018-04-17T10:39:15.656Z,3515.63
2018-04-17T10:40:15.290Z,3819.38
2018-04-17T10:41:15.500Z,3757.50
2018-04-17T10:42:15.711Z,1861.88
2018-04-17T10:43:15.786Z,3796.88
2018-04-17T10:44:16.028Z,3808.13
2018-04-17T10:45:16.151Z,3825.00
2018-04-17T10:46:16.363Z,3813.75
2018-04-17T10:47:16.520Z,3763.13
2018-04-17T10:48:16.702Z,3735.00
2018-04-17T10:49:16.905Z,3740.63
2018-04-17T10:50:17.035Z,3802.50
2018-04-17T10:51:17.266Z,3875.63
2018-04-17T10:52:17.454Z,3870.00
2018-04-17T10:53:17.597Z,3886.88
2018-04-17T10:54:17.752Z,3808.13
2018-04-17T10:55:17.954Z,3796.88
2018-04-17T10:56:18.185Z,3819.38
2018-04-17T10:57:18.376Z,3841.88
2018-04-17T10:58:18.496Z,3853.13
2018-04-17T10:59:18.674Z,3847.50
2018-04-17T11:00:18.842Z,3830.63
2018-04-17T11:01:19.055Z,3830.63
2018-04-17T11:02:19.226Z,3774.38
2018-04-17T11:03:19.463Z,3847.50
2018-04-17T11:04:19.568Z,3892.50
2018-04-17T11:05:19.749Z,3903.75
2018-04-17T11:06:19.927Z,3808.13
2018-04-17T11:07:20.086Z,3847.50
2018-04-17T11:08:20.234Z,3825.00
2018-04-17T11:09:20.484Z,3667.50
2018-04-17T11:10:20.644Z,3830.63
2018-04-17T11:11:20.781Z,3841.88
2018-04-17T11:12:20.984Z,3982.50
2018-04-17T11:13:21.155Z,3971.25
2018-04-17T11:14:21.360Z,3999.38
2018-04-17T11:15:21.523Z,3988.13
2018-04-17T11:16:21.678Z,3993.75
2018-04-17T11:17:21.847Z,4010.63
2018-04-17T11:18:22.018Z,4005.00
2018-04-17T11:19:22.217Z,4100.63
2018-04-17T11:20:22.356Z,4010.63
2018-04-17T11:21:22.584Z,4021.88
2018-04-17T11:22:22.763Z,3943.13
2018-04-17T11:23:22.956Z,3886.88
2018-04-17T11:24:23.114Z,3712.50
2018-04-17T11:25:23.269Z,3870.00
2018-04-17T11:26:23.445Z,3948.75
2018-04-17T11:27:23.641Z,3993.75
2018-04-17T11:28:23.835Z,3915.00
2018-04-17T11:29:24.007Z,3960.00
2018-04-17T11:30:24.190Z,3954.38
2018-04-17T11:31:24.372Z,3954.38
2018-04-17T11:32:24.503Z,1659.38
2018-04-17T11:33:24.743Z,3571.88
2018-04-17T11:34:24.903Z,4275.00
2018-04-17T11:35:25.031Z,4381.88
2018-04-17T11:36:25.283Z,4415.63
2018-04-17T11:37:25.432Z,4466.25
2018-04-17T11:38:25.641Z,4314.38
2018-04-17T11:39:25.742Z,4308.75
2018-04-17T11:40:25.972Z,4224.38
2018-04-17T11:41:26.149Z,4111.88
2018-04-17T11:42:26.351Z,4106.25
2018-04-17T11:43:26.441Z,3909.38
2018-04-17T11:44:26.635Z,3796.88
2018-04-17T11:45:26.954Z,3841.88
2018-04-17T11:46:27.092Z,4151.25
2018-04-17T11:47:27.265Z,4145.63
2018-04-17T11:48:27.425Z,4100.63
2018-04-17T11:49:27.590Z,4213.13
2018-04-17T11:50:27.801Z,4331.25
2018-04-17T11:51:28.006Z,4224.38
2018-04-17T11:52:28.083Z,4488.75
2018-04-17T11:53:28.279Z,4488.75
2018-04-17T11:54:28.439Z,4280.63
2018-04-17T11:55:28.674Z,4297.50
2018-04-17T11:56:28.827Z,4055.63
2018-04-17T11:57:28.992Z,4021.88
2018-04-17T11:58:29.246Z,4100.63
2018-04-17T11:59:29.326Z,4078.13
2018-04-17T12:00:29.585Z,4134.38
2018-04-17T12:01:29.838Z,4117.50
2018-04-17T12:02:29.927Z,4033.13
2018-04-17T12:03:30.065Z,4207.50
2018-04-17T12:04:30.281Z,4297.50
2018-04-17T12:05:30.535Z,4280.63
2018-04-17T12:06:30.659Z,4235.63
2018-04-17T12:07:30.884Z,4033.13
2018-04-17T12:08:31.035Z,3864.38
2018-04-17T12:09:31.166Z,3819.38
2018-04-17T12:10:31.362Z,3436.88
2018-04-17T12:11:31.597Z,3870.00
2018-04-17T12:12:31.812Z,3971.25
2018-04-17T12:13:31.942Z,4089.38
2018-04-17T12:14:32.128Z,4151.25
2018-04-17T12:15:32.305Z,4359.38
2018-04-17T12:16:32.470Z,4466.25
2018-04-17T12:17:32.646Z,4348.13
2018-04-17T12:18:32.849Z,4387.50
2018-04-17T12:19:33.036Z,4331.25
2018-04-17T12:20:33.220Z,4359.38
2018-04-17T12:21:33.412Z,4297.50
2018-04-17T12:22:33.574Z,3976.88
2018-04-17T12:23:33.748Z,4370.63
2018-04-17T12:24:33.994Z,4303.13
2018-04-17T12:25:34.069Z,4511.25
2018-04-17T12:26:34.245Z,4488.75
2018-04-17T12:27:34.400Z,4539.38
2018-04-17T12:28:34.628Z,4623.75
2018-04-17T12:29:34.776Z,4629.38
2018-04-17T12:30:34.999Z,4601.25
2018-04-17T12:31:35.161Z,4561.88
2018-04-17T12:32:35.327Z,4365.00
2018-04-17T12:33:35.555Z,4410.00
2018-04-17T12:34:35.743Z,4393.13
2018-04-17T12:35:35.862Z,4320.00
2018-04-17T12:36:36.038Z,4370.63
2018-04-17T12:37:36.187Z,4280.63
2018-04-17T12:38:36.386Z,4314.38
2018-04-17T12:39:36.606Z,4393.13
2018-04-17T12:40:36.811Z,4516.88
2018-04-17T12:41:36.986Z,4533.75
2018-04-17T12:42:37.155Z,4573.13
2018-04-17T12:43:37.326Z,4618.13
2018-04-17T12:44:37.554Z,4601.25
2018-04-17T12:45:37.741Z,4556.25
2018-04-17T12:46:37.823Z,4342.50
2018-04-17T12:47:38.007Z,4179.38
2018-04-17T12:48:38.214Z,4095.00
2018-04-17T12:49:38.492Z,3971.25
2018-04-17T12:50:38.671Z,3870.00
2018-04-17T12:51:38.823Z,3881.25
2018-04-17T12:52:39.061Z,3870.00
2018-04-17T12:53:39.214Z,3864.38
2018-04-17T12:54:39.385Z,3802.50
2018-04-17T12:55:39.593Z,2885.63
2018-04-17T12:56:39.882Z,2626.88
2018-04-17T12:57:39.962Z,3380.63
2018-04-17T12:58:40.193Z,4466.25
2018-04-17T12:59:40.299Z,4500.00
2018-04-17T13:00:40.456Z,3993.75
2018-04-17T13:01:40.709Z,4370.63
2018-04-17T13:02:40.881Z,4438.13
2018-04-17T13:03:41.074Z,4286.25
2018-04-17T13:04:41.276Z,4241.25
2018-04-17T13:05:41.387Z,4218.75
2018-04-17T13:06:41.575Z,4201.88
2018-04-17T13:07:41.856Z,4269.38
2018-04-17T13:08:42.006Z,4376.25
2018-04-17T13:09:42.141Z,4460.63
2018-04-17T13:10:42.319Z,4545.00
2018-04-17T13:11:42.511Z,4668.75
2018-04-17T13:12:42.721Z,4713.75
2018-04-17T13:13:42.887Z,4730.63
2018-04-17T13:14:43.081Z,4725.00
2018-04-17T13:15:43.274Z,4668.75
2018-04-17T13:16:43.408Z,4663.13
2018-04-17T13:17:43.613Z,4629.38
2018-04-17T13:18:43.789Z,4612.50
2018-04-17T13:19:44.006Z,4533.75
2018-04-17T13:20:44.247Z,4533.75
2018-04-17T13:21:44.419Z,4477.50
2018-04-17T13:22:44.527Z,4528.13
2018-04-17T13:23:44.787Z,4494.38
2018-04-17T13:24:44.906Z,4567.50
2018-04-17T13:25:45.127Z,4561.88
2018-04-17T13:26:45.287Z,4629.38
2018-04-17T13:27:45.496Z,4567.50
2018-04-17T13:28:45.660Z,4578.75
2018-04-17T13:29:45.814Z,4505.63
2018-04-17T13:30:45.966Z,4505.63
2018-04-17T13:31:46.147Z,4545.00
2018-04-17T13:32:46.298Z,4410.00
2018-04-17T13:33:46.563Z,4500.00
2018-04-17T13:34:46.693Z,4353.75
2018-04-17T13:35:46.882Z,4224.38
2018-04-17T13:36:47.125Z,4258.13
2018-04-17T13:37:47.326Z,4252.50
2018-04-17T13:38:47.507Z,4415.63
2018-04-17T13:39:47.630Z,4398.75
2018-04-17T13:40:47.788Z,4320.00
2018-04-17T13:41:48.017Z,4252.50
2018-04-17T13:42:48.202Z,4162.50
2018-04-17T13:43:48.320Z,4128.75
2018-04-17T13:44:48.588Z,4027.50
2018-04-17T13:45:48.686Z,3791.25
2018-04-17T13:46:48.907Z,3937.50
2018-04-17T13:47:49.077Z,3976.88
2018-04-17T13:48:49.249Z,4111.88
2018-04-17T13:49:49.456Z,4201.88
2018-04-17T13:50:49.672Z,4241.25
2018-04-17T13:51:49.809Z,4314.38
2018-04-17T13:52:50.004Z,4387.50
2018-04-17T13:53:50.198Z,4415.63
2018-04-17T13:54:50.311Z,4381.88
2018-04-17T13:55:50.449Z,4421.25
2018-04-17T13:56:50.680Z,4466.25
2018-04-17T13:57:50.833Z,4471.88
2018-04-17T13:58:51.043Z,4426.88
2018-04-17T13:59:51.226Z,4376.25
2018-04-17T14:00:51.361Z,4353.75
2018-04-17T14:01:51.580Z,4359.38
2018-04-17T14:02:51.693Z,4325.63
2018-04-17T14:03:51.957Z,4241.25
2018-04-17T14:04:52.122Z,4218.75
2018-04-17T14:05:52.284Z,4280.63
2018-04-17T14:06:52.529Z,4269.38
2018-04-17T14:07:52.709Z,4291.88
2018-04-17T14:08:52.852Z,4291.88
2018-04-17T14:09:53.044Z,4325.63
2018-04-17T14:10:53.216Z,4291.88
2018-04-17T14:11:53.358Z,4241.25
2018-04-17T14:12:53.589Z,4252.50
2018-04-17T14:13:53.725Z,4258.13
2018-04-17T14:14:53.917Z,4314.38
2018-04-17T14:15:54.114Z,4308.75
2018-04-17T14:16:54.293Z,4286.25
2018-04-17T14:17:54.475Z,4241.25
2018-04-17T14:18:54.653Z,4190.63
2018-04-17T14:19:54.842Z,4066.88
2018-04-17T14:20:54.976Z,4100.63
2018-04-17T14:21:55.124Z,4027.50
2018-04-17T14:22:55.284Z,3988.13
2018-04-17T14:23:55.525Z,4005.00
2018-04-17T14:24:55.710Z,3948.75
2018-04-17T14:25:55.847Z,3948.75
2018-04-17T14:26:56.002Z,3920.63
2018-04-17T14:27:56.240Z,3858.75
2018-04-17T14:28:56.385Z,3875.63
2018-04-17T14:29:56.617Z,3858.75
2018-04-17T14:30:56.762Z,3858.75
2018-04-17T14:31:56.918Z,3903.75
2018-04-17T14:32:57.177Z,3915.00
2018-04-17T14:33:57.329Z,3943.13
2018-04-17T14:34:57.536Z,3993.75
2018-04-17T14:35:57.755Z,3937.50
2018-04-17T14:36:57.927Z,3881.25
2018-04-17T14:37:58.068Z,3881.25
2018-04-17T14:38:58.268Z,3796.88
2018-04-17T14:39:58.478Z,3690.00
2018-04-17T14:40:58.690Z,3712.50
2018-04-17T14:41:58.836Z,3718.13
2018-04-17T14:42:59.024Z,3622.50
2018-04-17T14:43:59.246Z,3718.13
2018-04-17T14:44:59.374Z,3718.13
2018-04-17T14:45:59.537Z,3706.88
2018-04-17T14:46:59.765Z,3532.50
2018-04-17T14:47:59.902Z,3633.75
2018-04-17T14:49:00.031Z,3442.50
2018-04-17T14:50:00.266Z,2795.63
2018-04-17T14:51:00.458Z,3037.50
2018-04-17T14:52:00.647Z,3195.00
2018-04-17T14:53:00.838Z,3391.88
2018-04-17T14:54:00.986Z,3656.25
2018-04-17T14:55:01.171Z,3616.88
2018-04-17T14:56:01.334Z,3633.75
2018-04-17T14:57:01.537Z,3313.13
2018-04-17T14:58:01.741Z,3313.13
2018-04-17T14:59:01.860Z,3195.00
2018-04-17T15:00:02.061Z,3082.50
2018-04-17T15:01:02.216Z,3515.63
2018-04-17T15:02:02.377Z,3262.50
2018-04-17T15:03:02.604Z,3330.00
2018-04-17T15:04:02.804Z,3549.38
2018-04-17T15:05:02.950Z,3375.00
2018-04-17T15:06:03.100Z,3161.25
2018-04-17T15:07:03.290Z,3133.13
2018-04-17T15:08:03.410Z,3166.88
2018-04-17T15:09:03.657Z,2992.50
2018-04-17T15:10:03.837Z,2598.75
2018-04-17T15:11:04.029Z,2340.00
2018-04-17T15:12:04.201Z,2244.38
2018-04-17T15:13:04.457Z,2137.50
2018-04-17T15:14:04.578Z,2025.00
2018-04-17T15:15:04.792Z,2925.00
2018-04-17T15:16:04.960Z,3037.50
2018-04-17T15:17:05.077Z,3076.88
2018-04-17T15:18:05.280Z,3054.38
2018-04-17T15:19:05.463Z,3071.25
2018-04-17T15:20:05.679Z,3105.00
2018-04-17T15:21:05.859Z,3003.75
2018-04-17T15:22:06.019Z,2626.88
2018-04-17T15:23:06.211Z,2958.75
2018-04-17T15:24:06.349Z,3172.50
2018-04-17T15:25:06.590Z,3189.38
2018-04-17T15:26:06.743Z,3251.25
2018-04-17T15:27:06.942Z,3251.25
2018-04-17T15:28:07.130Z,3240.00
2018-04-17T15:29:07.272Z,3223.13
2018-04-17T15:30:07.471Z,3234.38
2018-04-17T15:31:07.614Z,3228.75
2018-04-17T15:32:07.856Z,3223.13
2018-04-17T15:33:08.023Z,3262.50
2018-04-17T15:34:08.147Z,3268.13
2018-04-17T15:35:08.405Z,3195.00
2018-04-17T15:36:08.577Z,3088.13
2018-04-17T15:37:08.733Z,3043.13
2018-04-17T15:38:08.868Z,2953.13
2018-04-17T15:39:09.003Z,2908.13
2018-04-17T15:40:09.224Z,2863.13
2018-04-17T15:41:09.371Z,2846.25
2018-04-17T15:42:09.639Z,2806.88
2018-04-17T15:43:09.815Z,2587.50
2018-04-17T15:44:09.962Z,2340.00
2018-04-17T15:45:10.104Z,2261.25
2018-04-17T15:46:10.285Z,2109.38
2018-04-17T15:47:10.458Z,1755.00
2018-04-17T15:48:10.675Z,1726.88
2018-04-17T15:49:10.912Z,1563.75
2018-04-17T15:50:11.015Z,1530.00
2018-04-17T15:51:11.215Z,1597.50
2018-04-17T15:52:11.397Z,1625.63
2018-04-17T15:53:11.528Z,2193.75
2018-04-17T15:54:11.754Z,2356.88
2018-04-17T15:55:11.869Z,2300.63
2018-04-17T15:56:12.050Z,2407.50
2018-04-17T15:57:12.227Z,2553.75
2018-04-17T15:58:12.436Z,2503.13
2018-04-17T15:59:12.556Z,2570.63
2018-04-17T16:00:12.726Z,2469.38
2018-04-17T16:01:12.978Z,2328.75
2018-04-17T16:02:13.110Z,2475.00
2018-04-17T16:03:13.276Z,2334.38
2018-04-17T16:04:13.411Z,2351.25
2018-04-17T16:05:13.608Z,2250.00
2018-04-17T16:06:13.794Z,2323.13
2018-04-17T16:07:13.927Z,2356.88
2018-04-17T16:08:14.133Z,2131.88
2018-04-17T16:09:14.345Z,2137.50
2018-04-17T16:10:14.471Z,2013.75
2018-04-17T16:11:14.716Z,1670.63
2018-04-17T16:12:14.857Z,1625.63
2018-04-17T16:13:15.040Z,1417.50
2018-04-17T16:14:15.293Z,1220.63
2018-04-17T16:15:15.381Z,1012.50
2018-04-17T16:16:15.504Z,950.63
2018-04-17T16:17:15.736Z,1192.50
2018-04-17T16:18:15.911Z,1580.63
2018-04-17T16:19:16.015Z,1395.00
2018-04-17T16:20:16.220Z,1113.75
2018-04-17T16:21:16.431Z,1175.63
2018-04-17T16:22:16.581Z,945.00
2018-04-17T16:23:16.748Z,871.88
2018-04-17T16:24:16.912Z,945.00
2018-04-17T16:25:17.086Z,945.00
2018-04-17T16:26:17.274Z,1001.25
2018-04-17T16:27:17.419Z,860.63
2018-04-17T16:28:17.614Z,697.50
2018-04-17T16:29:17.805Z,618.75
2018-04-17T16:30:17.966Z,635.63
2018-04-17T16:31:18.101Z,703.13
2018-04-17T16:32:18.290Z,669.38
2018-04-17T16:33:18.568Z,568.13
2018-04-17T16:34:18.754Z,585.00
2018-04-17T16:35:18.887Z,691.88
2018-04-17T16:36:19.049Z,804.38
2018-04-17T16:37:19.167Z,821.25
2018-04-17T16:38:19.423Z,663.75
2018-04-17T16:39:19.549Z,579.38
2018-04-17T16:40:19.735Z,534.38
2018-04-17T16:41:19.867Z,506.25
2018-04-17T16:42:20.117Z,466.88
2018-04-17T16:43:20.247Z,444.38
2018-04-17T16:44:20.464Z,444.38
2018-04-17T16:45:20.624Z,455.63
2018-04-17T16:46:20.858Z,466.88
2018-04-17T16:47:20.969Z,455.63
2018-04-17T16:48:21.153Z,405.00
2018-04-17T16:49:21.311Z,399.38
2018-04-17T16:50:21.490Z,416.25
2018-04-17T16:51:21.710Z,427.50
2018-04-17T16:52:21.862Z,410.63
2018-04-17T16:53:22.007Z,393.75
2018-04-17T16:54:22.164Z,371.25
2018-04-17T16:55:22.363Z,354.38
2018-04-17T16:56:22.614Z,343.13
2018-04-17T16:57:22.780Z,337.50
2018-04-17T16:58:22.910Z,331.88
2018-04-17T16:59:23.177Z,326.25
2018-04-17T17:00:23.301Z,320.63
2018-04-17T17:01:23.436Z,315.00
2018-04-17T17:02:23.589Z,309.38
2018-04-17T17:03:23.769Z,298.13
2018-04-17T17:04:23.971Z,292.50
2018-04-17T17:05:24.188Z,292.50
2018-04-17T17:06:24.293Z,286.88
2018-04-17T17:07:24.474Z,281.25
2018-04-17T17:08:24.703Z,275.63
2018-04-17T17:09:24.872Z,275.63
2018-04-17T17:10:25.018Z,275.63
2018-04-17T17:11:25.190Z,270.00
2018-04-17T17:12:25.348Z,275.63
2018-04-17T17:13:25.528Z,286.88
2018-04-17T17:14:25.787Z,286.88
2018-04-17T17:15:25.936Z,281.25
2018-04-17T17:16:26.109Z,275.63
2018-04-17T17:17:26.285Z,286.88
2018-04-17T17:18:26.431Z,292.50